Time;durP1;ratioP1;P1;durP2;ratioP2;P2;SDS_P1;SDS_P2;PMS_P1;PMS_P2;Temp;Humidity;BMP_temperature;BMP_pressure;BME280_temperature;BME280_humidity;BME280_pressure;Samples;Min_cycle;Max_cycle;Signal;HPM_P1;HPM_P2
2022/01/07 00:00:08;;;;;;;15.15;5.18;;;4.30;99.90;;;;;;5093808;28;20588;-70
2022/01/07 00:02:33;;;;;;;13.05;4.63;;;4.30;99.90;;;;;;5094313;28;20498;-70
2022/01/07 00:04:59;;;;;;;14.83;5.03;;;4.40;99.90;;;;;;5093915;28;20044;-71
2022/01/07 00:07:25;;;;;;;17.93;5.63;;;4.30;99.90;;;;;;5094431;28;20039;-70
2022/01/07 00:09:50;;;;;;;15.43;5.23;;;4.30;99.90;;;;;;5094205;28;20067;-70
2022/01/07 00:12:21;;;;;;;13.13;5.00;;;4.30;99.90;;;;;;5093849;28;20048;-70
2022/01/07 00:14:47;;;;;;;20.80;6.68;;;4.30;99.90;;;;;;5094221;28;20039;-70
2022/01/07 00:17:12;;;;;;;15.57;5.70;;;4.20;99.90;;;;;;5093709;28;20051;-70
2022/01/07 00:19:38;;;;;;;17.23;5.30;;;4.20;99.90;;;;;;5092534;28;20075;-70
2022/01/07 00:22:04;;;;;;;16.73;5.57;;;4.20;99.90;;;;;;5093750;28;20052;-70
2022/01/07 00:24:30;;;;;;;11.27;5.20;;;4.20;99.90;;;;;;5093905;28;20079;-70
2022/01/07 00:26:55;;;;;;;11.83;4.63;;;4.20;99.90;;;;;;5093915;28;20046;-70
2022/01/07 00:29:21;;;;;;;17.43;5.93;;;4.10;99.90;;;;;;5093467;28;20051;-70
2022/01/07 00:31:47;;;;;;;15.23;5.43;;;4.10;99.90;;;;;;5093971;28;20488;-71
2022/01/07 00:34:12;;;;;;;15.73;5.00;;;4.10;99.90;;;;;;5093470;28;20074;-71
2022/01/07 00:36:38;;;;;;;13.90;5.37;;;4.10;99.90;;;;;;5093632;28;20048;-71
2022/01/07 00:39:04;;;;;;;11.10;5.40;;;4.10;99.90;;;;;;5093388;28;20044;-71
2022/01/07 00:41:29;;;;;;;16.60;5.57;;;4.00;99.90;;;;;;5092428;28;20127;-71
2022/01/07 00:43:56;;;;;;;16.27;5.33;;;4.00;99.90;;;;;;5093537;28;20048;-71
2022/01/07 00:46:21;;;;;;;15.63;5.55;;;4.00;99.90;;;;;;5093353;28;20179;-71
2022/01/07 00:48:47;;;;;;;16.10;6.00;;;4.00;99.90;;;;;;5093671;28;20448;-70
2022/01/07 00:51:13;;;;;;;16.93;5.33;;;4.00;99.90;;;;;;5093133;28;20135;-71
2022/01/07 00:53:39;;;;;;;13.30;5.63;;;4.00;99.90;;;;;;5092422;28;20081;-71
2022/01/07 00:56:04;;;;;;;15.30;5.50;;;4.00;99.90;;;;;;5093174;28;20051;-71
2022/01/07 00:58:30;;;;;;;16.07;5.97;;;4.00;99.90;;;;;;5093549;28;20047;-70
2022/01/07 01:00:56;;;;;;;14.27;5.10;;;4.00;99.90;;;;;;5093264;28;20124;-70
2022/01/07 01:03:21;;;;;;;15.10;5.70;;;4.00;99.90;;;;;;5092697;28;20075;-70
2022/01/07 01:05:48;;;;;;;16.17;5.90;;;3.90;99.90;;;;;;5093240;28;20040;-70
2022/01/07 01:08:14;;;;;;;17.40;7.43;;;3.90;99.90;;;;;;5092494;28;20361;-71
2022/01/07 01:10:40;;;;;;;19.08;6.00;;;3.90;99.90;;;;;;5093194;28;20051;-70
2022/01/07 01:13:06;;;;;;;16.02;5.85;;;4.00;99.90;;;;;;5092882;28;20055;-70
2022/01/07 01:15:31;;;;;;;15.57;6.10;;;3.90;99.90;;;;;;5093086;28;20383;-70
2022/01/07 01:17:58;;;;;;;15.87;6.47;;;3.90;99.90;;;;;;5093022;28;20059;-70
2022/01/07 01:20:27;;;;;;;16.95;6.60;;;3.90;99.90;;;;;;5092732;28;20446;-70
2022/01/07 01:22:53;;;;;;;15.50;6.57;;;4.00;99.90;;;;;;5093242;28;20458;-70
2022/01/07 01:25:19;;;;;;;14.60;6.20;;;3.90;99.90;;;;;;5092684;28;20123;-71
2022/01/07 01:27:44;;;;;;;16.30;6.73;;;3.90;99.90;;;;;;5092670;28;20055;-70
2022/01/07 01:30:13;;;;;;;18.60;7.47;;;3.90;99.90;;;;;;5092642;28;20056;-71
2022/01/07 01:32:39;;;;;;;17.00;6.45;;;3.90;99.90;;;;;;5091721;28;20044;-71
2022/01/07 01:35:07;;;;;;;16.20;6.72;;;3.90;99.90;;;;;;5092922;28;20051;-71
2022/01/07 01:37:33;;;;;;;17.25;6.57;;;3.90;99.90;;;;;;5091772;28;20476;-71
2022/01/07 01:39:59;;;;;;;17.97;7.17;;;3.90;99.90;;;;;;5091744;28;20093;-71
2022/01/07 01:42:25;;;;;;;16.83;6.53;;;3.90;99.90;;;;;;5092582;28;20046;-71
2022/01/07 01:44:51;;;;;;;18.40;6.90;;;3.80;99.90;;;;;;5091649;28;20044;-71
2022/01/07 01:47:17;;;;;;;17.05;6.57;;;3.80;99.90;;;;;;5091244;28;20135;-70
2022/01/07 01:49:42;;;;;;;14.90;6.50;;;3.80;99.90;;;;;;5092797;28;20147;-70
2022/01/07 01:52:08;;;;;;;17.00;6.70;;;3.80;99.90;;;;;;5092716;28;20150;-75
2022/01/07 01:54:34;;;;;;;18.30;7.40;;;3.80;99.90;;;;;;5092691;28;20373;-70
2022/01/07 01:57:00;;;;;;;17.73;7.17;;;3.80;99.90;;;;;;5092764;28;20033;-70
2022/01/07 01:59:28;;;;;;;16.27;7.30;;;3.80;99.90;;;;;;5091375;28;20088;-71
2022/01/07 02:01:53;;;;;;;17.40;6.68;;;3.80;99.90;;;;;;5092870;28;20131;-71
2022/01/07 02:04:20;;;;;;;19.60;7.60;;;3.80;99.90;;;;;;5092399;28;20131;-71
2022/01/07 02:06:47;;;;;;;15.95;7.53;;;3.80;99.90;;;;;;5092581;28;20052;-71
2022/01/07 02:09:13;;;;;;;15.10;7.07;;;3.80;99.90;;;;;;5092290;28;20055;-71
2022/01/07 02:11:39;;;;;;;14.88;6.90;;;3.80;99.90;;;;;;5092550;28;20193;-70
2022/01/07 02:14:05;;;;;;;14.05;7.47;;;3.80;99.90;;;;;;5074736;28;20048;-70
2022/01/07 02:16:31;;;;;;;16.15;7.45;;;3.80;99.90;;;;;;5092211;28;20151;-70
2022/01/07 02:18:57;;;;;;;16.00;8.10;;;3.80;99.90;;;;;;5092468;28;20174;-70
2022/01/07 02:21:24;;;;;;;19.23;8.10;;;3.80;99.90;;;;;;5095109;28;20101;-70
2022/01/07 02:23:50;;;;;;;15.48;7.55;;;3.80;99.90;;;;;;5096506;28;20078;-70
2022/01/07 02:26:18;;;;;;;14.83;8.00;;;3.80;99.90;;;;;;5095932;28;20460;-69
2022/01/07 02:28:44;;;;;;;17.27;8.02;;;3.80;99.90;;;;;;5096163;28;20445;-69
2022/01/07 02:31:10;;;;;;;14.85;7.70;;;3.80;99.90;;;;;;5095117;28;20047;-69
2022/01/07 02:33:36;;;;;;;15.90;8.80;;;3.80;99.90;;;;;;5095799;28;20140;-69
2022/01/07 02:36:11;;;;;;;14.30;8.02;;;3.80;99.90;;;;;;5096058;28;20040;-69
2022/01/07 02:38:37;;;;;;;13.20;7.47;;;3.70;99.90;;;;;;5095642;28;20142;-69
2022/01/07 02:41:03;;;;;;;13.30;8.13;;;3.70;99.90;;;;;;5095956;28;20456;-70
2022/01/07 02:43:29;;;;;;;16.35;8.95;;;3.70;99.90;;;;;;5095556;28;20127;-70
2022/01/07 02:45:55;;;;;;;17.85;9.65;;;3.60;99.90;;;;;;5094726;28;20442;-70
2022/01/07 02:48:21;;;;;;;17.90;8.50;;;3.60;99.90;;;;;;5095585;28;20039;-70
2022/01/07 02:50:46;;;;;;;16.43;8.63;;;3.60;99.90;;;;;;5095721;28;20044;-70
2022/01/07 02:53:12;;;;;;;14.70;8.10;;;3.70;99.90;;;;;;5094425;28;20055;-70
2022/01/07 02:55:41;;;;;;;13.67;8.43;;;3.70;99.90;;;;;;5095346;28;20051;-70
2022/01/07 02:58:08;;;;;;;13.90;8.63;;;3.70;99.90;;;;;;5095540;28;20294;-70
2022/01/07 03:00:35;;;;;;;16.08;8.57;;;3.60;99.90;;;;;;5095237;28;20043;-70
2022/01/07 03:03:02;;;;;;;13.05;8.07;;;3.60;99.90;;;;;;5095525;28;20044;-70
2022/01/07 03:05:28;;;;;;;18.05;9.13;;;3.60;99.90;;;;;;5095210;28;20365;-70
2022/01/07 03:07:55;;;;;;;20.02;9.65;;;3.60;99.90;;;;;;5095451;28;20472;-70
2022/01/07 03:10:26;;;;;;;16.23;9.13;;;3.70;99.90;;;;;;5095100;28;20106;-70
2022/01/07 03:12:54;;;;;;;16.17;9.30;;;3.70;99.90;;;;;;5095660;28;20253;-70
2022/01/07 03:15:20;;;;;;;16.88;9.10;;;3.60;99.90;;;;;;5094930;28;20040;-70
2022/01/07 03:17:46;;;;;;;14.23;9.75;;;3.60;99.90;;;;;;5095008;28;20051;-70
2022/01/07 03:20:15;;;;;;;14.53;9.03;;;3.70;99.90;;;;;;5095240;28;20407;-70
2022/01/07 03:22:42;;;;;;;18.25;9.75;;;3.70;99.90;;;;;;5094867;28;20101;-70
2022/01/07 03:25:08;;;;;;;18.80;10.10;;;3.70;99.90;;;;;;5095130;28;20087;-70
2022/01/07 03:27:35;;;;;;;19.63;10.10;;;3.70;99.90;;;;;;5094765;28;20032;-70
2022/01/07 03:30:01;;;;;;;16.23;9.82;;;3.80;99.90;;;;;;5095249;28;20044;-70
2022/01/07 03:32:26;;;;;;;14.77;8.68;;;3.70;99.90;;;;;;5094450;28;20093;-70
2022/01/07 03:34:53;;;;;;;14.43;9.17;;;3.70;99.90;;;;;;5094963;28;20044;-70
2022/01/07 03:37:19;;;;;;;15.15;8.52;;;3.80;99.90;;;;;;5094747;28;20085;-69
2022/01/07 03:39:45;;;;;;;15.88;8.52;;;3.70;99.90;;;;;;5094574;28;20079;-70
2022/01/07 03:42:11;;;;;;;15.53;9.03;;;3.70;99.90;;;;;;5094791;28;20086;-70
2022/01/07 03:44:36;;;;;;;16.53;8.07;;;3.80;99.90;;;;;;5093270;28;20047;-70
2022/01/07 03:47:02;;;;;;;16.03;8.67;;;3.80;99.90;;;;;;5094706;28;20040;-70
2022/01/07 03:49:28;;;;;;;16.35;9.50;;;3.80;99.90;;;;;;5094280;28;20425;-70
2022/01/07 03:51:54;;;;;;;15.80;8.57;;;3.80;99.90;;;;;;5094583;28;20047;-70
2022/01/07 03:54:19;;;;;;;13.93;9.53;;;3.80;99.90;;;;;;5094498;28;20201;-70
2022/01/07 03:56:45;;;;;;;17.90;9.80;;;3.80;99.90;;;;;;5094140;28;20044;-70
2022/01/07 03:59:11;;;;;;;12.87;8.27;;;3.80;99.90;;;;;;5093306;28;20365;-70
2022/01/07 04:01:36;;;;;;;15.37;9.60;;;3.80;99.90;;;;;;5094055;28;20051;-70
2022/01/07 04:04:02;;;;;;;15.33;9.13;;;3.80;99.90;;;;;;5094371;28;20421;-70
2022/01/07 04:06:28;;;;;;;14.20;9.53;;;3.80;99.90;;;;;;5094030;28;20058;-71
2022/01/07 04:08:54;;;;;;;13.40;8.83;;;3.80;99.90;;;;;;5094707;28;20464;-70
2022/01/07 04:11:19;;;;;;;15.60;9.40;;;3.80;99.90;;;;;;5093026;28;20044;-70
2022/01/07 04:13:45;;;;;;;14.90;8.80;;;3.80;99.90;;;;;;5094119;28;20040;-70
2022/01/07 04:16:12;;;;;;;14.20;8.97;;;3.90;99.90;;;;;;5094098;28;20047;-70
2022/01/07 04:18:38;;;;;;;14.52;8.90;;;3.80;99.90;;;;;;5093404;28;20052;-70
2022/01/07 04:21:04;;;;;;;13.97;9.47;;;3.80;99.90;;;;;;5094048;28;20050;-70
2022/01/07 04:23:30;;;;;;;13.48;9.00;;;3.80;99.90;;;;;;5093740;28;20075;-71
2022/01/07 04:25:56;;;;;;;16.42;9.63;;;3.80;99.90;;;;;;5093992;28;20051;-70
2022/01/07 04:28:21;;;;;;;17.52;9.43;;;3.80;99.90;;;;;;5093884;28;20040;-70
2022/01/07 04:30:47;;;;;;;13.93;8.60;;;3.80;99.90;;;;;;5093556;28;20048;-70
2022/01/07 04:33:21;;;;;;;15.40;9.80;;;3.90;99.90;;;;;;5094024;28;20048;-70
2022/01/07 04:35:47;;;;;;;12.93;8.77;;;3.90;99.90;;;;;;5093508;28;20060;-71
2022/01/07 04:38:13;;;;;;;13.43;8.73;;;3.80;99.90;;;;;;5093535;28;20050;-70
2022/01/07 04:40:39;;;;;;;13.80;9.85;;;3.90;99.90;;;;;;5093345;28;20082;-70
2022/01/07 04:43:06;;;;;;;13.63;9.07;;;3.80;99.90;;;;;;5093266;28;20072;-71
2022/01/07 04:45:33;;;;;;;12.63;9.48;;;3.90;99.90;;;;;;5093310;28;20048;-70
2022/01/07 04:47:58;;;;;;;13.57;8.63;;;3.90;99.90;;;;;;5093417;28;20052;-71
2022/01/07 04:50:25;;;;;;;14.57;9.20;;;3.90;99.90;;;;;;5093573;28;20109;-70
2022/01/07 04:52:51;;;;;;;13.30;9.45;;;3.90;99.90;;;;;;5091977;28;20435;-70
2022/01/07 04:55:22;;;;;;;14.02;8.55;;;3.90;99.90;;;;;;5093329;28;20101;-71
2022/01/07 04:57:49;;;;;;;14.93;9.32;;;3.90;99.90;;;;;;5093012;28;20040;-70
2022/01/07 05:00:16;;;;;;;12.27;9.25;;;3.90;99.90;;;;;;5093479;28;20048;-71
2022/01/07 05:02:42;;;;;;;16.10;9.70;;;3.90;99.90;;;;;;5093017;28;20123;-71
2022/01/07 05:05:09;;;;;;;15.32;9.13;;;3.90;99.90;;;;;;5093211;28;20044;-71
2022/01/07 05:07:36;;;;;;;15.18;9.93;;;3.90;99.90;;;;;;5092974;28;20391;-70
2022/01/07 05:10:07;;;;;;;12.07;8.73;;;3.90;99.90;;;;;;5093198;28;20533;-71
2022/01/07 05:12:33;;;;;;;14.40;10.38;;;3.90;99.90;;;;;;5092081;28;20063;-71
2022/01/07 05:14:59;;;;;;;13.73;9.23;;;3.90;99.90;;;;;;5093154;28;20384;-71
2022/01/07 05:17:24;;;;;;;14.95;9.90;;;3.90;99.90;;;;;;5093074;28;20043;-71
2022/01/07 05:19:50;;;;;;;17.13;9.87;;;3.90;99.90;;;;;;5092427;28;20048;-71
2022/01/07 05:22:16;;;;;;;14.17;9.17;;;3.90;99.90;;;;;;5091744;28;20095;-71
2022/01/07 05:24:41;;;;;;;12.40;9.23;;;3.90;99.90;;;;;;5092673;28;20092;-71
2022/01/07 05:27:07;;;;;;;12.97;9.53;;;4.00;99.90;;;;;;5093041;28;20044;-71
2022/01/07 05:29:35;;;;;;;15.60;9.67;;;3.90;99.90;;;;;;5092959;28;20055;-75
2022/01/07 05:32:02;;;;;;;14.35;10.50;;;4.00;99.90;;;;;;5092993;28;20047;-71
2022/01/07 05:34:28;;;;;;;16.20;10.27;;;4.00;99.90;;;;;;5092936;28;20062;-71
2022/01/07 05:36:54;;;;;;;13.70;9.97;;;4.00;99.90;;;;;;5092824;28;20044;-71
2022/01/07 05:39:19;;;;;;;21.87;10.67;;;4.00;99.90;;;;;;5092155;28;20091;-71
2022/01/07 05:41:45;;;;;;;19.13;10.90;;;4.00;99.90;;;;;;5092576;28;20113;-71
2022/01/07 05:44:10;;;;;;;16.20;9.83;;;4.10;99.90;;;;;;5092874;28;20048;-71
2022/01/07 05:46:36;;;;;;;14.23;9.83;;;4.00;99.90;;;;;;5074809;28;20047;-72
2022/01/07 05:49:02;;;;;;;19.07;9.90;;;4.00;99.90;;;;;;5092785;28;20130;-71
2022/01/07 05:51:28;;;;;;;18.63;11.00;;;4.00;99.90;;;;;;5092831;28;20051;-70
2022/01/07 05:53:53;;;;;;;16.20;9.93;;;4.10;99.90;;;;;;5093302;28;20117;-71
2022/01/07 05:56:19;;;;;;;16.17;10.30;;;4.00;99.90;;;;;;5096831;28;20506;-71
2022/01/07 05:58:45;;;;;;;14.20;10.40;;;4.10;99.90;;;;;;5096076;28;20040;-71
2022/01/07 06:01:12;;;;;;;16.77;10.73;;;4.10;99.90;;;;;;5095754;28;20047;-70
2022/01/07 06:03:38;;;;;;;14.02;10.35;;;4.10;99.90;;;;;;5096493;28;20077;-74
2022/01/07 06:06:05;;;;;;;17.83;10.32;;;4.10;99.90;;;;;;5096990;28;20415;-71
2022/01/07 06:08:31;;;;;;;16.73;9.90;;;4.00;99.90;;;;;;5096551;28;20061;-70
2022/01/07 06:10:56;;;;;;;15.40;9.40;;;4.10;99.90;;;;;;5096281;28;20047;-70
2022/01/07 06:13:22;;;;;;;13.93;9.83;;;4.00;99.90;;;;;;5096613;28;20075;-70
2022/01/07 06:15:48;;;;;;;13.70;10.07;;;4.10;99.90;;;;;;5095910;28;20513;-71
2022/01/07 06:18:13;;;;;;;14.83;11.87;;;4.10;99.90;;;;;;5095959;28;20064;-71
2022/01/07 06:20:39;;;;;;;14.30;10.27;;;4.20;99.90;;;;;;5096265;28;20075;-75
2022/01/07 06:23:05;;;;;;;13.67;9.47;;;4.10;99.90;;;;;;5094745;28;20396;-71
2022/01/07 06:25:31;;;;;;;17.27;10.83;;;4.10;99.90;;;;;;5096329;28;20044;-71
2022/01/07 06:27:56;;;;;;;14.23;10.60;;;4.10;99.90;;;;;;5096220;28;20048;-71
2022/01/07 06:30:22;;;;;;;11.90;9.43;;;4.20;99.90;;;;;;5095166;28;20127;-71
2022/01/07 06:32:48;;;;;;;14.02;10.43;;;4.20;99.90;;;;;;5095785;28;20123;-71
2022/01/07 06:35:14;;;;;;;17.60;11.17;;;4.20;99.90;;;;;;5096351;28;20123;-72
2022/01/07 06:37:40;;;;;;;15.10;11.77;;;4.20;99.90;;;;;;5095943;28;20047;-70
2022/01/07 06:40:06;;;;;;;14.97;11.40;;;4.20;99.90;;;;;;5094441;28;20051;-71
2022/01/07 06:42:32;;;;;;;14.63;11.80;;;4.20;99.90;;;;;;5095903;28;20126;-71
2022/01/07 06:44:58;;;;;;;18.30;10.30;;;4.20;99.90;;;;;;5095609;28;20131;-71
2022/01/07 06:47:24;;;;;;;13.30;11.03;;;4.20;99.90;;;;;;5096073;28;20044;-70
2022/01/07 06:49:50;;;;;;;17.02;12.18;;;4.20;99.90;;;;;;5095433;28;20048;-71
2022/01/07 06:52:16;;;;;;;15.27;11.63;;;4.10;99.90;;;;;;5094531;28;20054;-71
2022/01/07 06:54:41;;;;;;;12.10;10.10;;;4.20;99.90;;;;;;5095787;28;20070;-71
2022/01/07 06:57:07;;;;;;;12.37;10.90;;;4.20;99.90;;;;;;5095261;28;20126;-70
2022/01/07 06:59:33;;;;;;;15.07;11.17;;;4.20;99.90;;;;;;5095549;28;20109;-71
2022/01/07 07:01:59;;;;;;;15.63;11.50;;;4.30;99.90;;;;;;5095287;28;20499;-72
2022/01/07 07:04:25;;;;;;;17.17;12.37;;;4.30;99.90;;;;;;5095465;28;20387;-70
2022/01/07 07:06:51;;;;;;;16.10;13.00;;;4.30;99.90;;;;;;5093600;28;20056;-71
2022/01/07 07:09:18;;;;;;;17.23;13.13;;;4.30;99.90;;;;;;5094256;28;20128;-71
2022/01/07 07:11:44;;;;;;;16.50;12.35;;;4.30;99.90;;;;;;5095030;28;20738;-71
2022/01/07 07:14:10;;;;;;;14.95;12.80;;;4.30;99.90;;;;;;5094972;28;20048;-69
2022/01/07 07:16:36;;;;;;;17.55;12.38;;;4.30;99.90;;;;;;5095267;28;20048;-70
2022/01/07 07:19:02;;;;;;;20.57;12.33;;;4.30;99.90;;;;;;5094867;28;20083;-70
2022/01/07 07:21:28;;;;;;;15.50;12.70;;;4.30;99.90;;;;;;5095161;28;20048;-70
2022/01/07 07:23:54;;;;;;;21.33;14.43;;;4.30;99.90;;;;;;5094505;28;20054;-70
2022/01/07 07:26:20;;;;;;;18.43;13.30;;;4.30;99.90;;;;;;5093899;28;20048;-70
2022/01/07 07:28:46;;;;;;;19.23;14.03;;;4.20;99.90;;;;;;5095324;28;20408;-70
2022/01/07 07:31:15;;;;;;;20.65;14.48;;;4.20;99.90;;;;;;5094938;28;20047;-70
2022/01/07 07:39:01;;;;;;;22.38;14.57;;;4.20;99.90;;;;;;5093498;28;20048;-70
2022/01/07 07:41:28;;;;;;;17.08;13.30;;;4.20;99.90;;;;;;5094910;28;20136;-70
2022/01/07 07:43:56;;;;;;;18.50;14.23;;;4.30;99.90;;;;;;5094412;28;20137;-70
2022/01/07 07:46:23;;;;;;;21.50;15.55;;;4.30;99.90;;;;;;5093442;28;20434;-70
2022/01/07 07:48:51;;;;;;;23.33;15.68;;;4.30;99.90;;;;;;5094557;28;20075;-75
2022/01/07 07:51:18;;;;;;;23.23;16.05;;;4.30;99.90;;;;;;5093397;28;20051;-70
2022/01/07 07:53:44;;;;;;;21.50;15.10;;;4.30;99.90;;;;;;5094493;28;20044;-70
2022/01/07 07:56:13;;;;;;;18.85;13.85;;;4.30;99.90;;;;;;5094496;28;20446;-70
2022/01/07 07:58:39;;;;;;;19.60;14.98;;;4.30;99.90;;;;;;5094361;28;20054;-70
2022/01/07 08:01:05;;;;;;;20.73;15.82;;;4.40;99.90;;;;;;5094029;28;20094;-70
2022/01/07 08:03:32;;;;;;;21.60;15.30;;;4.40;99.90;;;;;;5094434;28;20101;-70
2022/01/07 08:05:57;;;;;;;23.30;16.42;;;4.40;99.90;;;;;;5094033;28;20445;-70
2022/01/07 08:08:23;;;;;;;23.80;15.40;;;4.40;99.90;;;;;;5094485;28;20041;-70
2022/01/07 08:10:53;;;;;;;21.23;14.97;;;4.40;99.90;;;;;;5094104;28;20040;-70
2022/01/07 08:16:00;;;;;;;25.60;14.40;;;4.40;99.90;;;;;;5093159;28;20108;-70
2022/01/07 08:18:36;;;;;;;21.33;14.68;;;4.40;99.90;;;;;;5091727;28;20060;-70
2022/01/07 08:21:08;;;;;;;26.17;16.08;;;4.40;99.90;;;;;;5093416;28;20564;-71
2022/01/07 08:23:35;;;;;;;21.95;15.70;;;4.40;99.90;;;;;;5094017;28;20122;-70
2022/01/07 08:26:03;;;;;;;23.60;16.75;;;4.40;99.90;;;;;;5092435;28;20051;-70
2022/01/07 08:28:36;;;;;;;30.23;18.60;;;4.50;99.90;;;;;;5093013;28;20381;-70
2022/01/07 08:36:25;;;;;;;28.17;17.17;;;4.50;99.90;;;;;;5092891;28;20048;-70
2022/01/07 08:38:52;;;;;;;23.80;16.70;;;4.50;99.90;;;;;;5093659;28;20040;-72
2022/01/07 08:41:19;;;;;;;27.70;18.10;;;4.60;99.90;;;;;;5093378;28;20059;-70
2022/01/07 08:43:45;;;;;;;23.63;15.45;;;4.60;99.90;;;;;;5093650;28;20073;-70
2022/01/07 08:46:11;;;;;;;23.00;15.40;;;4.60;99.90;;;;;;5093368;28;20135;-70
2022/01/07 08:48:38;;;;;;;26.67;16.53;;;4.60;99.90;;;;;;5093504;28;20041;-71
2022/01/07 08:51:05;;;;;;;30.52;18.90;;;4.70;99.90;;;;;;5093121;28;20403;-72
2022/01/07 08:53:31;;;;;;;27.20;18.27;;;4.60;99.90;;;;;;5093415;28;20044;-72
2022/01/07 08:55:57;;;;;;;23.93;16.63;;;4.70;99.90;;;;;;5093222;28;20081;-76
2022/01/07 08:58:23;;;;;;;21.83;16.50;;;4.70;99.90;;;;;;5093579;28;20124;-71
2022/01/07 09:00:49;;;;;;;25.92;16.58;;;4.70;99.90;;;;;;5093318;28;20044;-71
2022/01/07 09:03:16;;;;;;;28.88;18.33;;;4.80;99.90;;;;;;5093023;28;20052;-72
2022/01/07 09:05:42;;;;;;;22.80;16.50;;;4.70;99.90;;;;;;5093561;28;20047;-71
2022/01/07 09:08:10;;;;;;;28.40;17.03;;;4.70;99.90;;;;;;5092114;28;20036;-72
2022/01/07 09:10:36;;;;;;;30.75;17.58;;;4.70;99.90;;;;;;5093324;28;20056;-73
2022/01/07 09:13:02;;;;;;;27.25;17.73;;;4.80;99.90;;;;;;5092920;28;20044;-76
2022/01/07 09:15:28;;;;;;;27.70;18.10;;;4.80;99.90;;;;;;5093525;28;20063;-71
2022/01/07 09:17:54;;;;;;;31.70;18.83;;;4.80;99.90;;;;;;5092913;28;20421;-72
2022/01/07 09:20:21;;;;;;;28.42;18.23;;;4.80;99.90;;;;;;5092893;28;20165;-73
2022/01/07 09:22:47;;;;;;;28.83;19.67;;;4.80;99.90;;;;;;5075282;28;20396;-71
2022/01/07 09:25:14;;;;;;;27.33;19.27;;;4.80;99.90;;;;;;5092704;28;20092;-73
2022/01/07 09:27:41;;;;;;;29.45;17.60;;;4.80;99.90;;;;;;5092971;28;20040;-73
2022/01/07 09:30:08;;;;;;;22.70;15.73;;;4.80;99.90;;;;;;5092335;28;20040;-73
2022/01/07 09:32:34;;;;;;;24.58;12.05;;;4.80;99.90;;;;;;5093353;28;20044;-73
2022/01/07 09:34:59;;;;;;;21.40;10.57;;;4.80;99.90;;;;;;5092967;28;20124;-72
2022/01/07 09:37:25;;;;;;;21.23;9.47;;;4.80;99.90;;;;;;5091657;28;20048;-71
2022/01/07 09:39:51;;;;;;;19.23;8.43;;;4.90;99.90;;;;;;5092912;28;20052;-73
2022/01/07 09:42:17;;;;;;;19.63;8.80;;;4.90;99.90;;;;;;5074867;28;20384;-72
2022/01/07 09:44:44;;;;;;;12.00;8.30;;;4.90;99.90;;;;;;5093091;28;20480;-73
2022/01/07 09:47:11;;;;;;;11.88;7.43;;;4.80;99.90;;;;;;5092747;28;20058;-73
2022/01/07 09:49:38;;;;;;;16.00;7.10;;;4.90;99.90;;;;;;5093209;28;20048;-73
2022/01/07 09:52:05;;;;;;;13.43;7.93;;;4.90;99.90;;;;;;5092677;28;20044;-75
2022/01/07 09:54:33;;;;;;;12.18;6.55;;;4.80;99.90;;;;;;5086634;28;20083;-73
2022/01/07 09:56:59;;;;;;;13.93;8.07;;;4.80;99.90;;;;;;5084477;28;20052;-76
2022/01/07 09:59:25;;;;;;;10.00;7.13;;;4.80;99.90;;;;;;5079196;28;20048;-74
2022/01/07 10:01:57;;;;;;;11.10;6.72;;;4.80;99.90;;;;;;5091449;28;20445;-76
2022/01/07 10:04:31;;;;;;;10.48;6.20;;;4.80;99.90;;;;;;5086855;28;20495;-78
2022/01/07 10:07:22;;;;;;;14.32;6.38;;;4.70;99.90;;;;;;5082436;28;20060;-76
2022/01/07 10:09:57;;;;;;;11.32;5.55;;;4.80;99.90;;;;;;5123172;28;20089;-74
2022/01/07 10:12:24;;;;;;;10.10;4.32;;;4.80;99.90;;;;;;5092026;28;20588;-74
2022/01/07 10:15:08;;;;;;;8.30;3.40;;;4.80;99.90;;;;;;5092628;28;20427;-76
2022/01/07 10:17:34;;;;;;;12.43;3.22;;;4.80;99.90;;;;;;5091258;28;20047;-77
2022/01/07 10:20:01;;;;;;;8.93;2.60;;;4.90;99.90;;;;;;5092118;28;20052;-76
2022/01/07 10:22:27;;;;;;;8.18;2.47;;;4.90;99.90;;;;;;5092016;28;21180;-74
2022/01/07 10:24:57;;;;;;;6.60;2.25;;;4.90;99.90;;;;;;5089730;28;20043;-78
2022/01/07 10:27:26;;;;;;;6.35;1.98;;;4.90;99.90;;;;;;5089777;28;20058;-76
2022/01/07 10:29:52;;;;;;;6.78;2.30;;;4.90;99.90;;;;;;5091651;28;20048;-75
2022/01/07 10:32:23;;;;;;;8.65;2.92;;;4.80;99.90;;;;;;5086413;28;20043;-74
2022/01/07 10:35:09;;;;;;;8.00;2.53;;;4.80;99.90;;;;;;5087781;28;20047;-72
2022/01/07 10:37:59;;;;;;;8.55;2.97;;;4.80;99.90;;;;;;5084021;28;20040;-78
2022/01/07 10:40:38;;;;;;;9.90;2.80;;;4.80;99.90;;;;;;5086164;28;20041;-79
2022/01/07 10:43:10;;;;;;;10.38;3.20;;;4.80;99.90;;;;;;5092792;28;20506;-78
2022/01/07 10:45:44;;;;;;;9.95;2.90;;;4.80;99.90;;;;;;5091982;28;20051;-78
2022/01/07 10:48:11;;;;;;;10.50;3.83;;;4.90;99.90;;;;;;5092368;28;20496;-81
2022/01/07 10:50:40;;;;;;;14.93;4.47;;;4.80;99.90;;;;;;5090706;28;20055;-84
2022/01/07 10:53:27;;;;;;;11.20;4.25;;;4.90;99.90;;;;;;5093055;28;20058;-79
2022/01/07 10:55:59;;;;;;;9.52;4.63;;;4.80;99.90;;;;;;5093654;28;20036;-83
2022/01/07 10:58:25;;;;;;;10.90;4.60;;;4.90;99.90;;;;;;5094875;28;20044;-81
2022/01/07 11:00:51;;;;;;;11.32;4.70;;;4.90;99.90;;;;;;5095211;28;20047;-82
2022/01/07 11:03:16;;;;;;;12.03;5.70;;;5.00;99.90;;;;;;5076841;28;20044;-78
2022/01/07 11:05:42;;;;;;;17.53;6.70;;;5.00;99.90;;;;;;5094379;28;20399;-76
2022/01/07 11:08:08;;;;;;;14.93;6.87;;;5.00;99.90;;;;;;5091228;28;20036;-85
2022/01/07 11:10:36;;;;;;;13.87;6.77;;;5.00;99.90;;;;;;5094033;28;20044;-72
2022/01/07 11:13:03;;;;;;;14.82;7.85;;;5.10;99.90;;;;;;5095387;28;20502;-71
2022/01/07 11:15:29;;;;;;;17.63;9.63;;;;;;;;;;5094122;28;20040;-72
2022/01/07 11:17:55;;;;;;;16.60;10.48;;;5.20;99.90;;;;;;5095032;28;20481;-72
2022/01/07 11:20:24;;;;;;;18.20;9.90;;;5.20;99.90;;;;;;5094969;28;20052;-73
2022/01/07 11:22:51;;;;;;;21.80;10.48;;;5.20;99.90;;;;;;5094935;28;20476;-74
2022/01/07 11:25:17;;;;;;;23.23;10.95;;;5.30;99.90;;;;;;5093670;28;20056;-72
2022/01/07 11:27:54;;;;;;;19.83;11.05;;;5.30;99.90;;;;;;5095426;28;20055;-74
2022/01/07 11:30:23;;;;;;;21.95;10.43;;;5.40;99.90;;;;;;5093728;28;20044;-73
2022/01/07 11:32:50;;;;;;;21.17;11.82;;;5.40;99.90;;;;;;5095066;28;20044;-74
2022/01/07 11:35:19;;;;;;;21.00;11.05;;;5.40;99.90;;;;;;5094641;28;20056;-74
2022/01/07 11:37:56;;;;;;;21.25;10.90;;;5.30;99.90;;;;;;5094852;28;20098;-74
2022/01/07 11:40:31;;;;;;;21.00;10.55;;;;;;;;;;5094617;28;20088;-73
2022/01/07 11:42:57;;;;;;;;;;;5.40;99.90;;;;;;5093799;28;20059;-75
2022/01/07 11:45:31;;;;;;;21.17;9.73;;;5.40;99.90;;;;;;5088877;28;20279;-76
2022/01/07 11:48:09;;;;;;;20.05;8.95;;;5.50;99.90;;;;;;5090746;28;20044;-75
2022/01/07 11:51:07;;;;;;;22.48;10.02;;;5.50;99.90;;;;;;5092888;28;20149;-75
2022/01/07 11:53:39;;;;;;;21.67;9.70;;;5.50;99.90;;;;;;5086380;28;20046;-78
2022/01/07 11:56:10;;;;;;;18.75;8.43;;;5.60;99.90;;;;;;5092619;28;20044;-77
2022/01/07 11:58:44;;;;;;;17.55;7.82;;;5.70;99.90;;;;;;5090807;28;20040;-77
2022/01/07 12:01:28;;;;;;;22.05;7.80;;;5.80;99.90;;;;;;5091250;28;20097;-74
2022/01/07 12:03:59;;;;;;;24.85;6.88;;;5.80;99.90;;;;;;5091014;28;20044;-73
2022/01/07 12:06:26;;;;;;;12.93;5.68;;;5.80;99.90;;;;;;5092694;28;20040;-73
2022/01/07 12:09:09;;;;;;;17.30;5.60;;;5.80;99.90;;;;;;5092786;28;20070;-70
2022/01/07 12:11:47;;;;;;;14.13;4.57;;;5.90;99.90;;;;;;5093995;28;20126;-71
2022/01/07 12:14:19;;;;;;;13.15;3.60;;;5.90;99.90;;;;;;5094207;28;20055;-70
2022/01/07 12:16:51;;;;;;;15.52;3.78;;;5.90;99.90;;;;;;5094340;28;20044;-70
2022/01/07 12:19:21;;;;;;;12.07;3.40;;;5.90;99.90;;;;;;5093434;28;20052;-75
2022/01/07 12:21:55;;;;;;;10.95;3.63;;;5.90;99.90;;;;;;5093970;28;20191;-71
2022/01/07 12:24:28;;;;;;;11.27;2.75;;;5.90;99.90;;;;;;5092817;28;20496;-71
2022/01/07 12:27:06;;;;;;;11.65;3.40;;;5.80;99.90;;;;;;5093153;28;20047;-73
2022/01/07 12:29:33;;;;;;;12.70;2.97;;;5.80;99.90;;;;;;5093741;28;20430;-71
2022/01/07 12:32:02;;;;;;;13.07;3.40;;;5.60;99.90;;;;;;5093905;28;20048;-71
2022/01/07 12:34:37;;;;;;;14.43;3.90;;;5.60;99.90;;;;;;5093549;28;20070;-71
2022/01/07 12:37:11;;;;;;;15.68;3.92;;;5.50;99.90;;;;;;5093490;28;20510;-71
2022/01/07 12:39:41;;;;;;;14.13;3.65;;;5.50;99.90;;;;;;5093370;28;20043;-70
2022/01/07 12:42:07;;;;;;;12.10;3.20;;;5.50;99.90;;;;;;5092462;28;20050;-70
2022/01/07 12:44:36;;;;;;;10.73;2.85;;;5.50;99.90;;;;;;5093269;28;20051;-71
2022/01/07 12:47:03;;;;;;;11.68;3.05;;;5.50;99.90;;;;;;5092605;28;20052;-71
2022/01/07 12:49:54;;;;;;;13.88;2.97;;;5.50;99.90;;;;;;5091700;28;20535;-71
2022/01/07 12:52:26;;;;;;;12.10;2.75;;;5.50;99.90;;;;;;5092728;28;20056;-71
2022/01/07 12:54:57;;;;;;;16.95;2.72;;;5.40;99.90;;;;;;5093480;28;20047;-70
2022/01/07 12:57:31;;;;;;;14.02;3.25;;;5.40;99.90;;;;;;5093178;28;20202;-72
2022/01/07 13:00:18;;;;;;;13.85;3.05;;;5.40;99.90;;;;;;5092408;28;20048;-70